createdAt,value
2023-03-23T16:00:44.303Z,9.23
2023-03-23T16:03:59.537Z,9.15
2023-03-23T16:07:07.292Z,9.02
2023-03-23T16:10:19.368Z,8.32
2023-03-23T16:13:25.143Z,8.43
2023-03-23T16:16:49.721Z,9.45
2023-03-23T16:19:55.889Z,10.15
2023-03-23T16:23:01.320Z,9.70
2023-03-23T16:26:07.218Z,9.55
2023-03-23T16:29:28.427Z,10.25
2023-03-23T16:35:44.488Z,9.20
2023-03-23T16:38:53.038Z,8.82
2023-03-23T16:42:00.944Z,10.10
2023-03-23T16:45:07.387Z,9.95
2023-03-23T16:48:15.063Z,10.68
2023-03-23T16:51:21.239Z,8.85
2023-03-23T16:54:26.884Z,8.30
2023-03-23T16:57:35.489Z,9.13
2023-03-23T17:00:41.666Z,9.85
2023-03-23T17:03:47.131Z,8.93
2023-03-23T17:06:52.658Z,9.68
2023-03-23T17:09:58.626Z,9.60
2023-03-23T17:13:04.632Z,10.07
2023-03-23T17:16:10.856Z,10.15
2023-03-23T17:19:16.528Z,9.90
2023-03-23T17:22:22.199Z,10.60
2023-03-23T17:25:30.629Z,9.35
2023-03-23T17:28:36.563Z,9.02
2023-03-23T17:31:42.103Z,9.13
2023-03-23T17:34:48.100Z,9.85
2023-03-23T17:37:53.705Z,11.43
2023-03-23T17:41:00.722Z,10.57
2023-03-23T17:44:07.034Z,11.88
2023-03-23T17:47:13.107Z,11.57
2023-03-23T17:50:19.285Z,12.20
2023-03-23T17:53:26.730Z,11.50
2023-03-23T17:56:32.722Z,10.68
2023-03-23T17:59:38.339Z,12.00
2023-03-23T18:02:44.011Z,11.93
2023-03-23T18:05:51.325Z,10.88
2023-03-23T18:08:56.826Z,13.32
2023-03-23T18:12:02.030Z,11.48
2023-03-23T18:15:09.496Z,12.32
2023-03-23T18:18:14.690Z,12.05
2023-03-23T18:21:20.177Z,12.88
2023-03-23T18:24:25.663Z,11.13
2023-03-23T18:27:31.836Z,12.00
2023-03-23T18:30:37.252Z,12.85
2023-03-23T18:33:46.832Z,11.90
2023-03-23T18:36:52.540Z,13.48
2023-03-23T18:39:57.973Z,14.00
2023-03-23T18:43:03.366Z,14.10
2023-03-23T18:46:11.333Z,12.73
2023-03-23T18:49:16.425Z,13.80
2023-03-23T18:52:26.866Z,12.63
2023-03-23T18:55:32.596Z,13.95
2023-03-23T18:58:38.709Z,12.98
2023-03-23T19:01:44.154Z,14.57
2023-03-23T19:04:50.157Z,12.73
2023-03-23T19:07:55.682Z,13.18
2023-03-23T19:11:04.423Z,12.93
2023-03-23T19:14:09.874Z,13.85
2023-03-23T19:17:16.166Z,12.75
2023-03-23T19:23:35.444Z,13.32
2023-03-23T19:26:43.575Z,14.32
2023-03-23T19:29:49.088Z,13.00
2023-03-23T19:32:54.880Z,13.07
2023-03-23T19:36:09.137Z,12.57
2023-03-23T19:39:17.912Z,14.20
2023-03-23T19:42:23.852Z,14.68
2023-03-23T19:45:29.344Z,15.05
2023-03-23T19:48:34.796Z,15.65
2023-03-23T19:51:41.120Z,16.20
2023-03-23T19:54:46.543Z,16.00
2023-03-23T19:57:52.328Z,14.15
2023-03-23T20:01:00.943Z,13.45
2023-03-23T20:04:07.181Z,13.48
2023-03-23T20:07:12.763Z,15.65
2023-03-23T20:10:18.713Z,20.50
2023-03-23T20:13:24.322Z,20.67
2023-03-23T20:16:30.036Z,16.90
2023-03-23T20:19:36.636Z,15.00
2023-03-23T20:22:42.898Z,14.82
2023-03-23T20:28:56.538Z,17.83
2023-03-23T20:32:02.333Z,17.23
2023-03-23T20:35:10.964Z,16.08
2023-03-23T20:38:18.608Z,15.88
2023-03-23T20:41:24.719Z,17.10
2023-03-23T20:44:35.211Z,18.10
2023-03-23T20:47:41.840Z,22.10
2023-03-23T20:50:47.495Z,18.05
2023-03-23T20:53:53.565Z,19.05
2023-03-23T20:56:59.686Z,17.33
2023-03-23T21:00:06.903Z,18.10
2023-03-23T21:03:13.750Z,19.25
2023-03-23T21:06:19.588Z,19.90
2023-03-23T21:09:25.632Z,20.40
2023-03-23T21:12:31.077Z,22.33
2023-03-23T21:15:36.813Z,21.00
2023-03-23T21:18:42.628Z,21.95
2023-03-23T21:21:56.835Z,24.65
2023-03-23T21:25:02.809Z,25.55
2023-03-23T21:28:09.299Z,27.52
2023-03-23T21:31:15.451Z,28.15
2023-03-23T21:34:20.869Z,29.33
2023-03-23T21:37:26.641Z,28.98
2023-03-23T21:40:32.418Z,30.23
2023-03-23T21:43:41.054Z,29.23
2023-03-23T21:46:46.988Z,29.70
2023-03-23T21:49:52.828Z,32.53
2023-03-23T21:52:58.100Z,30.77
2023-03-23T21:56:06.099Z,31.20
2023-03-23T21:59:11.875Z,29.33
2023-03-23T22:02:17.674Z,28.42
2023-03-23T22:05:23.642Z,30.45
2023-03-23T22:08:30.257Z,29.80
2023-03-23T22:11:37.634Z,29.52
2023-03-23T22:14:43.178Z,31.08
2023-03-23T22:17:48.985Z,30.23
2023-03-23T22:20:54.625Z,29.77
2023-03-23T22:24:01.352Z,29.75
2023-03-23T22:27:07.396Z,31.00
2023-03-23T22:30:13.832Z,32.05
2023-03-23T22:33:20.249Z,30.65
2023-03-23T22:36:28.273Z,26.50
2023-03-23T22:39:35.110Z,27.95
2023-03-23T22:42:40.959Z,27.13
2023-03-23T22:45:46.698Z,29.83
2023-03-23T22:48:52.898Z,28.85
2023-03-23T22:51:58.308Z,28.90
2023-03-23T22:55:06.053Z,28.20
2023-03-23T22:58:12.346Z,29.50
2023-03-23T23:01:23.165Z,32.05
2023-03-23T23:04:30.811Z,30.02
2023-03-23T23:07:37.180Z,30.27
2023-03-23T23:10:46.597Z,30.38
2023-03-23T23:13:53.036Z,29.77
2023-03-23T23:16:58.577Z,29.95
2023-03-23T23:20:07.975Z,29.15
2023-03-23T23:23:13.537Z,29.45
2023-03-23T23:26:20.212Z,29.58
2023-03-23T23:29:26.154Z,29.05
2023-03-23T23:32:32.510Z,29.65
2023-03-23T23:35:38.710Z,29.98
2023-03-23T23:38:45.097Z,31.38
2023-03-23T23:41:51.050Z,29.27
2023-03-23T23:44:56.604Z,29.52
2023-03-23T23:48:02.315Z,26.85
2023-03-23T23:51:08.614Z,29.88
2023-03-23T23:54:15.168Z,28.98
2023-03-23T23:57:20.644Z,30.33
